createdAt,value
2023-02-04T00:00:03.290Z,83
2023-02-04T00:03:03.427Z,83
2023-02-04T00:06:03.344Z,83.2
2023-02-04T00:09:03.187Z,83.2
2023-02-04T00:12:03.187Z,83.2
2023-02-04T00:15:03.141Z,84
2023-02-04T00:18:03.191Z,84
2023-02-04T00:21:03.161Z,85.3
2023-02-04T00:24:03.215Z,85.3
2023-02-04T00:27:03.173Z,85.3
2023-02-04T00:30:03.250Z,86.7
2023-02-04T00:33:03.122Z,86.7
2023-02-04T00:36:03.219Z,86.7
2023-02-04T00:39:03.605Z,86.7
2023-02-04T00:42:03.222Z,85.5
2023-02-04T00:45:03.165Z,85.5
2023-02-04T00:48:03.156Z,85.5
2023-02-04T00:51:03.128Z,85.5
2023-02-04T00:54:03.242Z,83
2023-02-04T00:57:03.154Z,83
2023-02-04T01:00:03.259Z,83
2023-02-04T01:03:03.384Z,83
2023-02-04T01:06:03.181Z,83.1
2023-02-04T01:09:03.141Z,83.1
2023-02-04T01:12:03.167Z,83.1
2023-02-04T01:15:03.158Z,83.5
2023-02-04T01:18:03.149Z,83.5
2023-02-04T01:21:03.119Z,83.5
2023-02-04T01:24:03.244Z,82.5
2023-02-04T01:27:03.214Z,82.5
2023-02-04T01:30:03.322Z,82.5
2023-02-04T01:33:03.148Z,82.5
2023-02-04T01:36:03.119Z,82.5
2023-02-04T01:39:03.204Z,82.5
2023-02-04T01:42:03.222Z,82.5
2023-02-04T01:45:03.164Z,82.5
2023-02-04T01:48:03.191Z,83
2023-02-04T01:51:03.134Z,83
2023-02-04T01:54:03.154Z,82.3
2023-02-04T01:57:03.190Z,82
2023-02-04T02:00:03.352Z,82
2023-02-04T02:03:03.160Z,81.8
2023-02-04T02:06:03.151Z,81.8
2023-02-04T02:09:03.177Z,81.8
2023-02-04T02:12:03.153Z,81.8
2023-02-04T02:15:03.180Z,81.6
2023-02-04T02:18:03.305Z,81.6
2023-02-04T02:21:03.193Z,81.6
2023-02-04T02:24:03.246Z,81.6
2023-02-04T02:27:03.163Z,81.6
2023-02-04T02:30:03.263Z,81.6
2023-02-04T02:33:03.177Z,81.6
2023-02-04T02:36:03.144Z,81.9
2023-02-04T02:39:03.192Z,81.9
2023-02-04T02:42:03.135Z,81.9
2023-02-04T02:45:03.200Z,81.9
2023-02-04T02:48:03.131Z,82.1
2023-02-04T02:51:03.178Z,82.1
2023-02-04T02:54:03.118Z,82.1
2023-02-04T02:57:03.206Z,82.1
2023-02-04T03:00:03.216Z,82.1
2023-02-04T03:03:03.199Z,82.1
2023-02-04T03:06:03.213Z,82.7
2023-02-04T03:09:03.136Z,82.7
2023-02-04T03:12:03.126Z,82.7
2023-02-04T03:15:03.130Z,83
2023-02-04T03:18:03.188Z,83
2023-02-04T03:21:03.156Z,83
2023-02-04T03:24:03.173Z,83
2023-02-04T03:27:03.137Z,83.3
2023-02-04T03:30:03.160Z,83.3
2023-02-04T03:33:03.167Z,83.3
2023-02-04T03:36:03.146Z,83.5
2023-02-04T03:39:03.164Z,83.5
2023-02-04T03:42:03.125Z,83.5
2023-02-04T03:45:03.158Z,83.5
2023-02-04T03:48:03.114Z,83.6
2023-02-04T03:51:03.166Z,83.6
2023-02-04T03:54:03.171Z,83.6
2023-02-04T03:57:03.148Z,83.5
2023-02-04T04:00:03.314Z,83.5
2023-02-04T04:03:03.467Z,83.5
2023-02-04T04:06:03.171Z,83.5
2023-02-04T04:09:03.144Z,83.5
2023-02-04T04:12:03.244Z,83.8
2023-02-04T04:15:03.118Z,83.8
2023-02-04T04:18:03.159Z,83.8
2023-02-04T04:21:03.152Z,83.8
2023-02-04T04:24:03.196Z,83.8
2023-02-04T04:27:03.124Z,83.8
2023-02-04T04:30:03.180Z,83.8
2023-02-04T04:33:03.168Z,83.8
2023-02-04T04:36:03.188Z,83.9
2023-02-04T04:39:03.257Z,83.9
2023-02-04T04:42:03.120Z,83.9
2023-02-04T04:45:03.276Z,83.9
2023-02-04T04:48:03.142Z,83.9
2023-02-04T04:51:03.123Z,84.8
2023-02-04T04:54:03.114Z,84.8
2023-02-04T04:57:03.134Z,84.8
2023-02-04T05:00:03.239Z,84.8
2023-02-04T05:03:03.152Z,84.8
2023-02-04T05:06:03.235Z,84.8
2023-02-04T05:09:03.311Z,85.2
2023-02-04T05:12:03.142Z,85.2
2023-02-04T05:15:03.250Z,85.2
2023-02-04T05:18:03.166Z,85.2
2023-02-04T05:21:03.125Z,85.4
2023-02-04T05:24:03.171Z,85.4
2023-02-04T05:27:03.168Z,85.4
2023-02-04T05:30:03.244Z,85.4
2023-02-04T05:33:03.142Z,85.4
2023-02-04T05:36:03.147Z,85.4
2023-02-04T05:39:03.143Z,85.4
2023-02-04T05:42:03.162Z,85.4
2023-02-04T05:45:03.128Z,85.4
2023-02-04T05:48:03.124Z,85.3
2023-02-04T05:51:03.272Z,85.3
2023-02-04T05:54:03.140Z,85.3
2023-02-04T05:57:03.153Z,85.3
2023-02-04T06:00:03.305Z,85.3
2023-02-04T06:03:03.397Z,84.9
2023-02-04T06:06:03.132Z,84.9
2023-02-04T06:09:03.145Z,84.9
2023-02-04T06:12:03.139Z,84.7
2023-02-04T06:15:03.142Z,84.7
2023-02-04T06:18:03.137Z,84.7
2023-02-04T06:21:03.126Z,84.7
2023-02-04T06:24:04.633Z,84.7
2023-02-04T06:27:03.116Z,84.7
2023-02-04T06:30:03.233Z,84.7
2023-02-04T06:33:03.114Z,84.7
2023-02-04T06:36:03.204Z,84.7
2023-02-04T06:39:03.178Z,85.2
2023-02-04T06:42:03.302Z,85.2
2023-02-04T06:45:03.242Z,85.2
2023-02-04T06:48:03.187Z,85.2
2023-02-04T06:51:03.186Z,85.2
2023-02-04T06:54:03.180Z,85.2
2023-02-04T06:57:03.253Z,85.2
2023-02-04T07:00:03.283Z,85.2
2023-02-04T07:03:03.241Z,85.1
2023-02-04T07:06:03.144Z,85.1
2023-02-04T07:09:03.217Z,85.1
2023-02-04T07:12:03.160Z,85.1
2023-02-04T07:15:03.290Z,85.1
2023-02-04T07:18:03.141Z,85
2023-02-04T07:21:03.281Z,85
2023-02-04T07:24:03.235Z,85
2023-02-04T07:27:05.045Z,85
2023-02-04T07:30:03.453Z,85
2023-02-04T07:33:03.222Z,85.2
2023-02-04T07:36:03.278Z,85.2
2023-02-04T07:39:03.142Z,85.2
2023-02-04T07:42:03.223Z,85.2
2023-02-04T07:45:03.150Z,85.2
2023-02-04T07:48:03.179Z,85.2
2023-02-04T07:51:03.153Z,85.2
2023-02-04T07:54:03.258Z,86.1
2023-02-04T07:57:03.193Z,86.1
2023-02-04T08:00:03.747Z,86.5
2023-02-04T08:03:03.504Z,86.5
2023-02-04T08:06:03.165Z,86.5
2023-02-04T08:09:03.172Z,86.5
2023-02-04T08:12:03.271Z,86.5
2023-02-04T08:15:03.153Z,87
2023-02-04T08:18:03.169Z,87
2023-02-04T08:21:03.196Z,87
2023-02-04T08:24:03.180Z,87
2023-02-04T08:27:03.179Z,87
2023-02-04T08:30:03.241Z,87
2023-02-04T08:33:03.201Z,87
2023-02-04T08:36:03.242Z,87
2023-02-04T08:39:03.223Z,87
2023-02-04T08:42:03.247Z,87
2023-02-04T08:45:03.188Z,87
2023-02-04T08:48:03.337Z,88.2
2023-02-04T08:51:03.165Z,88.2
2023-02-04T08:54:03.127Z,88.2
2023-02-04T08:57:03.206Z,88.2
2023-02-04T09:00:03.461Z,88.2
2023-02-04T09:03:03.345Z,88.2
2023-02-04T09:06:03.273Z,89
2023-02-04T09:09:03.271Z,89
2023-02-04T09:12:03.310Z,89
2023-02-04T09:15:03.252Z,89
2023-02-04T09:18:03.273Z,89
2023-02-04T09:21:03.242Z,89
2023-02-04T09:24:03.226Z,89
2023-02-04T09:27:03.238Z,89
2023-02-04T09:30:03.369Z,89
2023-02-04T09:33:03.204Z,89.7
2023-02-04T09:36:03.391Z,89.7
2023-02-04T09:39:03.491Z,89.7
2023-02-04T09:42:03.272Z,89.7
2023-02-04T09:45:03.240Z,89.7
2023-02-04T09:48:03.267Z,89.7
2023-02-04T09:51:03.276Z,89.7
2023-02-04T09:54:03.186Z,89.7
2023-02-04T09:57:03.196Z,89.7
2023-02-04T10:00:03.226Z,89
2023-02-04T10:03:03.242Z,89
2023-02-04T10:06:03.191Z,89
2023-02-04T10:09:03.181Z,89
2023-02-04T10:12:03.157Z,89
2023-02-04T10:15:03.238Z,89
2023-02-04T10:18:03.192Z,89
2023-02-04T10:21:03.220Z,89
2023-02-04T10:24:03.173Z,89
2023-02-04T10:27:03.298Z,89
2023-02-04T10:30:03.195Z,88
2023-02-04T10:33:03.201Z,88
2023-02-04T10:36:03.186Z,88
2023-02-04T10:39:03.202Z,88
2023-02-04T10:42:03.214Z,88
2023-02-04T10:45:03.377Z,88
2023-02-04T10:48:03.226Z,86.8
2023-02-04T10:51:03.218Z,86.8
2023-02-04T10:54:03.191Z,86.8
2023-02-04T10:57:03.238Z,86.8
2023-02-04T11:00:03.282Z,86.8
2023-02-04T11:03:03.429Z,86.8
2023-02-04T11:06:03.233Z,86.8
2023-02-04T11:09:03.168Z,86.8
2023-02-04T11:12:03.249Z,86.8
2023-02-04T11:15:03.188Z,85.3
2023-02-04T11:18:03.183Z,85.3
2023-02-04T11:21:03.400Z,85.3
2023-02-04T11:24:03.178Z,85.3
2023-02-04T11:27:03.243Z,85.3
2023-02-04T11:30:03.212Z,85.3
2023-02-04T11:33:03.187Z,84.7
2023-02-04T11:36:03.281Z,84.7
2023-02-04T11:39:03.144Z,84.7
2023-02-04T11:42:03.206Z,84.7
2023-02-04T11:45:03.177Z,82.1
2023-02-04T11:48:03.223Z,82.1
2023-02-04T11:51:03.288Z,82.1
2023-02-04T11:54:03.239Z,82.1
2023-02-04T11:57:03.177Z,82.1
2023-02-04T12:00:03.359Z,82.1
2023-02-04T12:03:03.381Z,82.1
2023-02-04T12:06:03.193Z,78.4
2023-02-04T12:09:03.203Z,78.4
2023-02-04T12:12:03.295Z,78.4
2023-02-04T12:15:03.282Z,78.4
2023-02-04T12:18:03.187Z,78.4
2023-02-04T12:21:03.184Z,78.4
2023-02-04T12:24:03.214Z,78.4
2023-02-04T12:27:03.500Z,78.4
2023-02-04T12:30:03.293Z,78.4
2023-02-04T12:33:03.145Z,78.4
2023-02-04T12:36:03.179Z,78.4
2023-02-04T12:39:03.265Z,78.4
2023-02-04T12:42:03.174Z,78.4
2023-02-04T12:45:03.190Z,78.4
2023-02-04T12:48:03.395Z,78.4
2023-02-04T12:51:07.752Z,78.4
2023-02-04T12:54:03.853Z,78.4
2023-02-04T12:57:03.140Z,78.3
2023-02-04T13:00:03.360Z,78.3
2023-02-04T13:03:03.203Z,78.3
2023-02-04T13:06:03.265Z,78.3
2023-02-04T13:09:03.211Z,78.3
2023-02-04T13:12:03.224Z,78.3
2023-02-04T13:15:03.226Z,78.3
2023-02-04T13:18:03.186Z,78.3
2023-02-04T13:21:03.139Z,78.3
2023-02-04T13:24:03.225Z,78.3
2023-02-04T13:27:03.183Z,78.3
2023-02-04T13:30:03.530Z,78.3
2023-02-04T13:33:03.226Z,78.3
2023-02-04T13:36:03.188Z,78.3
2023-02-04T13:39:03.246Z,78.3
2023-02-04T13:42:04.523Z,78.3
2023-02-04T13:45:03.215Z,78.3
2023-02-04T13:48:03.176Z,78.3
2023-02-04T13:51:03.210Z,78.3
2023-02-04T13:54:03.269Z,78.3
2023-02-04T13:57:03.227Z,78.3
2023-02-04T14:00:03.253Z,78.3
2023-02-04T14:03:03.277Z,78.3
2023-02-04T14:06:03.160Z,78.3
2023-02-04T14:09:03.196Z,78.3
2023-02-04T14:12:03.221Z,78.3
2023-02-04T14:15:03.200Z,78.3
2023-02-04T14:18:03.203Z,78.3
2023-02-04T14:21:03.206Z,78.3
2023-02-04T14:24:03.180Z,78.3
2023-02-04T14:27:03.174Z,78.3
2023-02-04T14:30:03.234Z,78.3
2023-02-04T14:33:03.237Z,78.3
2023-02-04T14:36:03.213Z,78.3
2023-02-04T14:39:03.245Z,78.3
2023-02-04T14:42:03.170Z,78.3
2023-02-04T14:45:03.329Z,78.3
2023-02-04T14:48:03.198Z,78.3
2023-02-04T14:51:03.168Z,78.3
2023-02-04T14:54:03.206Z,78.3
2023-02-04T14:57:03.181Z,78.3
2023-02-04T15:00:03.348Z,76.8
2023-02-04T15:03:03.224Z,76.8
2023-02-04T15:06:03.256Z,76.8
2023-02-04T15:09:03.222Z,76.8
2023-02-04T15:12:03.405Z,76.8
2023-02-04T15:15:03.264Z,76.8
2023-02-04T15:18:03.307Z,76.8
2023-02-04T15:21:03.815Z,76.8
2023-02-04T15:24:03.241Z,76.8
2023-02-04T15:27:03.327Z,76.8
2023-02-04T15:30:03.210Z,76.8
2023-02-04T15:33:03.291Z,76.8
2023-02-04T15:36:03.255Z,76.8
2023-02-04T15:39:03.281Z,76.8
2023-02-04T15:42:03.184Z,76.8
2023-02-04T15:45:03.279Z,76.8
2023-02-04T15:48:03.235Z,76.8
2023-02-04T15:51:03.250Z,76.8
2023-02-04T15:54:03.389Z,76.8
2023-02-04T15:57:03.221Z,76.8
2023-02-04T16:00:04.173Z,77.8
2023-02-04T16:03:03.401Z,77.8
2023-02-04T16:06:03.224Z,77.8
2023-02-04T16:09:03.226Z,77.8
2023-02-04T16:12:03.179Z,77.8
2023-02-04T16:15:03.189Z,77.8
2023-02-04T16:18:03.173Z,77.8
2023-02-04T16:21:03.207Z,77.8
2023-02-04T16:24:03.276Z,77.8
2023-02-04T16:27:03.157Z,76.7
2023-02-04T16:30:03.203Z,76.7
2023-02-04T16:33:03.160Z,76.7
2023-02-04T16:36:03.190Z,76.7
2023-02-04T16:39:03.235Z,76.7
2023-02-04T16:42:03.130Z,76.7
2023-02-04T16:45:03.153Z,76.7
2023-02-04T16:48:03.156Z,76.7
2023-02-04T16:51:03.222Z,76.4
2023-02-04T16:54:03.138Z,76.4
2023-02-04T16:57:03.132Z,76.4
2023-02-04T17:00:03.221Z,76.4
2023-02-04T17:03:03.331Z,76.4
2023-02-04T17:06:03.152Z,76.4
2023-02-04T17:09:03.183Z,77.1
2023-02-04T17:12:03.194Z,77.1
2023-02-04T17:15:03.139Z,77.1
2023-02-04T17:18:03.166Z,77.1
2023-02-04T17:21:03.168Z,77.1
2023-02-04T17:24:04.155Z,78
2023-02-04T17:27:03.144Z,78
2023-02-04T17:30:03.431Z,78
2023-02-04T17:33:03.134Z,78
2023-02-04T17:36:03.142Z,78
2023-02-04T17:39:03.152Z,78
2023-02-04T17:42:03.168Z,78
2023-02-04T17:45:03.163Z,78
2023-02-04T17:48:03.197Z,78
2023-02-04T17:51:03.209Z,78
2023-02-04T17:54:03.153Z,78.8
2023-02-04T17:57:03.181Z,78.8
2023-02-04T18:00:03.395Z,78.8
2023-02-04T18:03:03.239Z,78.8
2023-02-04T18:06:03.195Z,78.8
2023-02-04T18:09:03.150Z,78.8
2023-02-04T18:12:03.173Z,78.8
2023-02-04T18:15:03.207Z,78.8
2023-02-04T18:18:03.211Z,78.8
2023-02-04T18:21:03.179Z,78.8
2023-02-04T18:24:03.746Z,78.8
2023-02-04T18:27:03.144Z,78.8
2023-02-04T18:30:03.231Z,78.8
2023-02-04T18:33:03.150Z,78.8
2023-02-04T18:36:03.171Z,80.1
2023-02-04T18:39:03.158Z,80.1
2023-02-04T18:42:03.250Z,80.1
2023-02-04T18:45:03.171Z,80.1
2023-02-04T18:48:03.179Z,80.1
2023-02-04T18:51:03.171Z,80.1
2023-02-04T18:54:03.201Z,80.1
2023-02-04T18:57:03.161Z,80.1
2023-02-04T19:00:03.188Z,80.1
2023-02-04T19:03:03.188Z,80.1
2023-02-04T19:06:03.251Z,80.1
2023-02-04T19:09:03.167Z,80.1
2023-02-04T19:12:03.229Z,80.1
2023-02-04T19:15:03.173Z,80.1
2023-02-04T19:18:03.241Z,80.6
2023-02-04T19:21:03.132Z,80.6
2023-02-04T19:24:03.154Z,80.6
2023-02-04T19:27:03.095Z,80.6
2023-02-04T19:30:03.287Z,80.6
2023-02-04T19:33:03.192Z,80.6
2023-02-04T19:36:03.158Z,80.6
2023-02-04T19:39:03.188Z,80.6
2023-02-04T19:42:03.173Z,80.6
2023-02-04T19:45:03.177Z,80.6
2023-02-04T19:48:03.181Z,80.6
2023-02-04T19:51:03.176Z,80.6
2023-02-04T19:54:03.148Z,80.6
2023-02-04T19:57:03.159Z,80.6
2023-02-04T20:00:03.219Z,80.6
2023-02-04T20:03:03.168Z,80.6
2023-02-04T20:06:03.176Z,80.6
2023-02-04T20:09:03.176Z,80.6
2023-02-04T20:12:03.176Z,80.6
2023-02-04T20:15:03.173Z,80.6
2023-02-04T20:18:03.168Z,80.6
2023-02-04T20:21:03.178Z,80.6
2023-02-04T20:24:03.183Z,80.6
2023-02-04T20:27:03.155Z,80.6
2023-02-04T20:30:03.213Z,80.6
2023-02-04T20:33:03.184Z,80.6
2023-02-04T20:36:03.149Z,80.6
2023-02-04T20:39:03.205Z,80.6
2023-02-04T20:42:03.201Z,80.6
2023-02-04T20:45:03.142Z,80.6
2023-02-04T20:48:03.119Z,81.3
2023-02-04T20:51:03.129Z,81.3
2023-02-04T20:54:03.183Z,81.3
2023-02-04T20:57:03.109Z,81.3
2023-02-04T21:00:03.253Z,81.3
2023-02-04T21:03:03.163Z,81.3
2023-02-04T21:06:03.212Z,81.3
2023-02-04T21:09:03.142Z,81.3
2023-02-04T21:12:03.178Z,81.3
2023-02-04T21:15:03.202Z,81.3
2023-02-04T21:18:03.185Z,81.9
2023-02-04T21:21:03.146Z,81.9
2023-02-04T21:24:03.196Z,81.9
2023-02-04T21:27:03.144Z,81.9
2023-02-04T21:30:03.207Z,81.9
2023-02-04T21:33:03.139Z,81.9
2023-02-04T21:36:03.242Z,81.9
2023-02-04T21:39:03.663Z,81.9
2023-02-04T21:42:03.164Z,81.9
2023-02-04T21:45:03.732Z,81.9
2023-02-04T21:48:03.224Z,81.9
2023-02-04T21:51:03.188Z,81.9
2023-02-04T21:54:03.186Z,81.9
2023-02-04T21:57:03.195Z,81.9
2023-02-04T22:00:03.207Z,81.9
2023-02-04T22:03:03.330Z,81.9
2023-02-04T22:06:03.171Z,81.9
2023-02-04T22:09:03.188Z,81.9
2023-02-04T22:12:03.170Z,81.9
2023-02-04T22:15:06.563Z,81.9
2023-02-04T22:18:03.201Z,81.9
2023-02-04T22:21:03.195Z,82.8
2023-02-04T22:24:03.202Z,82.8
2023-02-04T22:27:03.100Z,82.8
2023-02-04T22:30:03.187Z,82.8
2023-02-04T22:33:03.167Z,82.8
2023-02-04T22:36:03.147Z,82.8
2023-02-04T22:39:03.188Z,82.8
2023-02-04T22:42:03.217Z,82.8
2023-02-04T22:45:03.124Z,82.8
2023-02-04T22:48:03.170Z,82.8
2023-02-04T22:51:03.153Z,82.8
2023-02-04T22:54:03.210Z,82.8
2023-02-04T22:57:03.232Z,82.8
2023-02-04T23:00:03.532Z,82.8
2023-02-04T23:03:03.128Z,82.8
2023-02-04T23:06:03.179Z,82.8
2023-02-04T23:09:03.165Z,82.8
2023-02-04T23:12:03.156Z,82.8
2023-02-04T23:15:03.257Z,82.8
2023-02-04T23:18:03.160Z,82.8
2023-02-04T23:21:03.146Z,82.8
2023-02-04T23:24:03.156Z,82.8
2023-02-04T23:27:03.205Z,82.8
2023-02-04T23:30:03.177Z,82.8
2023-02-04T23:33:03.159Z,82.9
2023-02-04T23:36:03.197Z,82.9
2023-02-04T23:39:03.151Z,82.9
2023-02-04T23:42:03.149Z,82.9
2023-02-04T23:45:03.155Z,82.9
2023-02-04T23:48:03.152Z,82.9
2023-02-04T23:51:03.223Z,82.9
2023-02-04T23:54:03.139Z,82.9
2023-02-04T23:57:03.174Z,82.9
